Kegley, West Virginia
Current Conditions -  °F | °C
As of 3:52 AM on Wednesday 26 Nov 2014 (Local Time) from KBLF Reporting Station
Light Rain Light Rain  
Wind Chill: 39°   Ceiling: 2000
Heat Index: 39°   Visibility: 10mi
Dew Point: 32°   Wind: 3mph
Humidity: 76%   Direction: 140°SE
Pressure: 29.99"   Gusts: NA
Location:  37.4°N, 81.13°W
Report Text: KBLF 260852Z AUTO 14003KT 10SM -RA OVC020 04/00 A2999 RMK AO2 RAB20 SLP152 P0001 60001 T00390000 55014
Loading
Personal Weather Stations






























Interactive Weather Map New forecast layout! Learn more

10-Day Weather Forecast

Advertisements
Track Severe Weather on mobile